Time;durP1;ratioP1;P1;durP2;ratioP2;P2;SDS_P1;SDS_P2;PMS_P1;PMS_P2;Temp;Humidity;BMP_temperature;BMP_pressure;BME280_temperature;BME280_humidity;BME280_pressure;Samples;Min_cycle;Max_cycle;Signal;HPM_P1;HPM_P2
2022/01/29 00:01:12;;;;;;;;;;;;;;;;;;2209078;59;14973;-72
2022/01/29 00:03:48;;;;;;;;;;;;;;;;;;2207415;67;17405;-72
2022/01/29 00:06:21;;;;;;;;;;;;;;;;;;2209921;67;16464;-72
2022/01/29 00:08:56;;;;;;;;;;;;;;;;;;2209198;59;14405;-72
2022/01/29 00:11:35;;;;;;;;;;;;;;;;;;2208851;67;30537;-72
2022/01/29 00:14:08;;;;;;;;;;;;;;;;;;2209404;59;14634;-72
2022/01/29 00:16:43;;;;;;;;;;;;;;;;;;2209210;59;16238;-72
2022/01/29 00:19:19;;;;;;;;;;;;;;;;;;2209537;59;15516;-72
2022/01/29 00:21:52;;;;;;;;;;;;;;;;;;2209142;67;14688;-72
2022/01/29 00:24:25;;;;;;;;;;;;;;;;;;2209654;59;17886;-72
2022/01/29 00:26:58;;;;;;;;;;;;;;;;;;2209254;59;15351;-72
2022/01/29 00:29:34;;;;;;;;;;;;;;;;;;2209371;59;16599;-72
2022/01/29 00:32:07;;;;;;;;;;;;;;;;;;2209862;59;20589;-72
2022/01/29 00:34:44;;;;;;;;;;;;;;;;;;2211130;59;15228;-71
2022/01/29 00:37:17;;;;;;;;;;;;;;;;;;2209419;67;14411;-72
2022/01/29 00:39:50;;;;;;;;;;;;;;;;;;2208608;63;15352;-72
2022/01/29 00:42:23;;;;;;;;;;;;;;;;;;2209704;59;16190;-72
2022/01/29 00:44:57;;;;;;;;;;;;;;;;;;2208825;67;26130;-72
2022/01/29 00:47:30;;;;;;;;;;;;;;;;;;2209187;59;16986;-72
2022/01/29 00:50:06;;;;;;;;;;;;;;;;;;2209903;59;13080;-72
2022/01/29 00:52:39;;;;;;;;;;;;;;;;;;2208887;59;16549;-72
2022/01/29 00:55:13;;;;;;;;;;;;;;;;;;2209591;59;15323;-72
2022/01/29 00:57:47;;;;;;;;;;;;;;;;;;2209713;59;17334;-72
2022/01/29 01:00:20;;;;;;;;;;;;;;;;;;2209758;63;21011;-72
2022/01/29 01:02:53;;;;;;;;;;;;;;;;;;2209660;59;15744;-71
2022/01/29 01:05:29;;;;;;;;;;;;;;;;;;2208903;59;19153;-73
2022/01/29 01:08:02;;;;;;;;;;;;;;;;;;2210416;59;13648;-72
2022/01/29 01:10:35;;;;;;;;;;;;;;;;;;2209943;67;15578;-72
2022/01/29 01:13:08;;;;;;;;;;;;;;;;;;2210222;66;15312;-72
2022/01/29 01:15:41;;;;;;;;;;;;;;;;;;2208489;59;27785;-72
2022/01/29 01:18:14;;;;;;;;;;;;;;;;;;2209768;67;34411;-72
2022/01/29 01:20:50;;;;;;;;;;;;;;;;;;2210085;59;13320;-72
2022/01/29 01:23:24;;;;;;;;;;;;;;;;;;2208860;59;14515;-72
2022/01/29 01:25:58;;;;;;;;;;;;;;;;;;2208928;59;16159;-72
2022/01/29 01:28:31;;;;;;;;;;;;;;;;;;2210571;59;14736;-72
2022/01/29 01:31:04;;;;;;;;;;;;;;;;;;2209431;66;17699;-72
2022/01/29 01:33:37;;;;;;;;;;;;;;;;;;2208847;59;18052;-72
2022/01/29 01:36:15;;;;;;;;;;;;;;;;;;2209089;59;24395;-72
2022/01/29 01:38:52;;;;;;;;;;;;;;;;;;2208958;64;15067;-72
2022/01/29 01:41:27;;;;;;;;;;;;;;;;;;2209072;59;13844;-72
2022/01/29 01:44:02;;;;;;;;;;;;;;;;;;2209300;59;15522;-72
2022/01/29 01:46:35;;;;;;;;;;;;;;;;;;2209948;59;13654;-72
2022/01/29 01:49:08;;;;;;;;;;;;;;;;;;2209596;59;28972;-72
2022/01/29 01:51:44;;;;;;;;;;;;;;;;;;2208826;63;19567;-72
2022/01/29 01:54:18;;;;;;;;;;;;;;;;;;2209834;59;17952;-72
2022/01/29 01:56:51;;;;;;;;;;;;;;;;;;2209869;59;14347;-72
2022/01/29 01:59:24;;;;;;;;;;;;;;;;;;2209185;59;15779;-72
2022/01/29 02:01:57;;;;;;;;;;;;;;;;;;2208814;59;20241;-72
2022/01/29 02:04:30;;;;;;;;;;;;;;;;;;2210051;59;18555;-72
2022/01/29 02:07:06;;;;;;;;;;;;;;;;;;2209192;59;14957;-72
2022/01/29 02:09:40;;;;;;;;;;;;;;;;;;2209309;59;16625;-72
2022/01/29 02:12:13;;;;;;;;;;;;;;;;;;2210340;59;13001;-72
2022/01/29 02:14:47;;;;;;;;;;;;;;;;;;2208756;59;23059;-72
2022/01/29 02:17:20;;;;;;;;;;;;;;;;;;2209118;59;19444;-72
2022/01/29 02:19:53;;;;;;;;;;;;;;;;;;2208781;63;19081;-72
2022/01/29 02:22:29;;;;;;;;;;;;;;;;;;2209766;59;33026;-72
2022/01/29 02:25:02;;;;;;;;;;;;;;;;;;2208651;67;16654;-72
2022/01/29 02:27:35;;;;;;;;;;;;;;;;;;2209227;64;16740;-72
2022/01/29 02:30:09;;;;;;;;;;;;;;;;;;2210160;59;13046;-72
2022/01/29 02:32:44;;;;;;;;;;;;;;;;;;2209744;67;14763;-72
2022/01/29 02:35:18;;;;;;;;;;;;;;;;;;2209088;59;16512;-72
2022/01/29 02:37:53;;;;;;;;;;;;;;;;;;2208348;67;29958;-72
2022/01/29 02:40:28;;;;;;;;;;;;;;;;;;2209924;67;14891;-72
2022/01/29 02:43:11;;;;;;;;;;;;;;;;;;2209040;59;17931;-72
2022/01/29 02:45:44;;;;;;;;;;;;;;;;;;2208246;59;18802;-72
2022/01/29 02:48:17;;;;;;;;;;;;;;;;;;2210047;59;14884;-72
2022/01/29 02:50:51;;;;;;;;;;;;;;;;;;2209336;59;15463;-72
2022/01/29 02:53:27;;;;;;;;;;;;;;;;;;2209304;63;21525;-72
2022/01/29 02:56:00;;;;;;;;;;;;;;;;;;2208109;59;16377;-72
2022/01/29 02:58:33;;;;;;;;;;;;;;;;;;2210053;59;15225;-72
2022/01/29 03:01:07;;;;;;;;;;;;;;;;;;2209209;67;14345;-72
2022/01/29 03:03:40;;;;;;;;;;;;;;;;;;2208704;59;15502;-72
2022/01/29 03:06:13;;;;;;;;;;;;;;;;;;2209584;67;21001;-72
2022/01/29 03:08:49;;;;;;;;;;;;;;;;;;2208935;59;19125;-72
2022/01/29 03:11:22;;;;;;;;;;;;;;;;;;2209247;67;24501;-72
2022/01/29 03:13:55;;;;;;;;;;;;;;;;;;2208028;59;18895;-72
2022/01/29 03:16:28;;;;;;;;;;;;;;;;;;2209644;59;18924;-72
2022/01/29 03:19:01;;;;;;;;;;;;;;;;;;2209635;59;14453;-72
2022/01/29 03:21:35;;;;;;;;;;;;;;;;;;2208652;59;16158;-72
2022/01/29 03:24:11;;;;;;;;;;;;;;;;;;2209628;59;25893;-72
2022/01/29 03:26:44;;;;;;;;;;;;;;;;;;2209807;67;27623;-72
2022/01/29 03:29:17;;;;;;;;;;;;;;;;;;2209656;59;14648;-72
2022/01/29 03:31:50;;;;;;;;;;;;;;;;;;2208218;63;14388;-72
2022/01/29 03:34:23;;;;;;;;;;;;;;;;;;2210754;66;15374;-72
2022/01/29 03:36:57;;;;;;;;;;;;;;;;;;2209423;59;17904;-72
2022/01/29 03:39:34;;;;;;;;;;;;;;;;;;2208617;59;21088;-72
2022/01/29 03:42:09;;;;;;;;;;;;;;;;;;2210152;59;15812;-72
2022/01/29 03:44:42;;;;;;;;;;;;;;;;;;2208773;59;13407;-72
2022/01/29 03:47:15;;;;;;;;;;;;;;;;;;2209371;59;18046;-72
2022/01/29 03:49:49;;;;;;;;;;;;;;;;;;2209038;59;19870;-72
2022/01/29 03:52:22;;;;;;;;;;;;;;;;;;2209674;59;17557;-72
2022/01/29 03:54:58;;;;;;;;;;;;;;;;;;2209233;59;12569;-72
2022/01/29 03:57:31;;;;;;;;;;;;;;;;;;2208653;63;23464;-72
2022/01/29 04:00:05;;;;;;;;;;;;;;;;;;2209711;59;16222;-72
2022/01/29 04:02:38;;;;;;;;;;;;;;;;;;2209960;59;19659;-72
2022/01/29 04:05:12;;;;;;;;;;;;;;;;;;2209816;59;13694;-72
2022/01/29 04:07:45;;;;;;;;;;;;;;;;;;2209045;59;19258;-72
2022/01/29 04:10:23;;;;;;;;;;;;;;;;;;2210428;59;15591;-72
2022/01/29 04:12:57;;;;;;;;;;;;;;;;;;2209553;59;19261;-72
2022/01/29 04:15:30;;;;;;;;;;;;;;;;;;2208366;59;14960;-72
2022/01/29 04:18:03;;;;;;;;;;;;;;;;;;2210283;59;19577;-72
2022/01/29 04:20:36;;;;;;;;;;;;;;;;;;2210257;59;16367;-72
2022/01/29 04:23:09;;;;;;;;;;;;;;;;;;2209931;67;16424;-72
2022/01/29 04:25:45;;;;;;;;;;;;;;;;;;2209087;59;19869;-72
2022/01/29 04:28:18;;;;;;;;;;;;;;;;;;2210465;63;17561;-72
2022/01/29 04:30:57;;;;;;;;;;;;;;;;;;2209607;63;15440;-72
2022/01/29 04:33:33;;;;;;;;;;;;;;;;;;2209465;59;14795;-72
2022/01/29 04:36:07;;;;;;;;;;;;;;;;;;2209402;59;18600;-72
2022/01/29 04:38:41;;;;;;;;;;;;;;;;;;2209310;67;15591;-72
2022/01/29 04:41:16;;;;;;;;;;;;;;;;;;2209672;67;16823;-72
2022/01/29 04:43:50;;;;;;;;;;;;;;;;;;2208378;63;21355;-72
2022/01/29 04:46:23;;;;;;;;;;;;;;;;;;2209340;59;28257;-72
2022/01/29 04:48:56;;;;;;;;;;;;;;;;;;2210108;59;19592;-72
2022/01/29 04:51:29;;;;;;;;;;;;;;;;;;2209259;59;17138;-72
2022/01/29 04:54:02;;;;;;;;;;;;;;;;;;2209904;59;15022;-72
2022/01/29 04:56:38;;;;;;;;;;;;;;;;;;2209609;59;21538;-72
2022/01/29 04:59:11;;;;;;;;;;;;;;;;;;2209188;59;21264;-72
2022/01/29 05:01:44;;;;;;;;;;;;;;;;;;2209040;59;27658;-72
2022/01/29 05:04:18;;;;;;;;;;;;;;;;;;2210151;63;14990;-72
2022/01/29 05:06:51;;;;;;;;;;;;;;;;;;2209544;59;22592;-72
2022/01/29 05:09:24;;;;;;;;;;;;;;;;;;2209523;67;14985;-72
2022/01/29 05:12:02;;;;;;;;;;;;;;;;;;2208419;67;18847;-72
2022/01/29 05:14:41;;;;;;;;;;;;;;;;;;2209960;67;20831;-73
2022/01/29 05:28:35;;;;;;;;;;;;;;;;;;2210370;59;13471;-72
2022/01/29 05:31:08;;;;;;;;;;;;;;;;;;2209501;59;13545;-72
2022/01/29 05:33:42;;;;;;;;;;;;;;;;;;2208848;67;30951;-72
2022/01/29 05:36:15;;;;;;;;;;;;;;;;;;2210431;59;21279;-72
2022/01/29 05:38:48;;;;;;;;;;;;;;;;;;2208427;59;16541;-72
2022/01/29 05:41:21;;;;;;;;;;;;;;;;;;2209227;64;14462;-72
2022/01/29 05:43:57;;;;;;;;;;;;;;;;;;2208598;59;15256;-72
2022/01/29 05:46:30;;;;;;;;;;;;;;;;;;2208987;59;15867;-72
2022/01/29 05:49:03;;;;;;;;;;;;;;;;;;2209894;59;14582;-72
2022/01/29 05:51:36;;;;;;;;;;;;;;;;;;2208942;59;20809;-72
2022/01/29 05:54:09;;;;;;;;;;;;;;;;;;2209997;59;15415;-72
2022/01/29 05:56:43;;;;;;;;;;;;;;;;;;2209539;59;15718;-72
2022/01/29 05:59:18;;;;;;;;;;;;;;;;;;2209115;59;15873;-72
2022/01/29 06:01:52;;;;;;;;;;;;;;;;;;2209271;59;16023;-72
2022/01/29 06:04:25;;;;;;;;;;;;;;;;;;2209778;67;18076;-72
2022/01/29 06:06:58;;;;;;;;;;;;;;;;;;2209611;59;27920;-72
2022/01/29 06:09:31;;;;;;;;;;;;;;;;;;2209185;59;20072;-72
2022/01/29 06:12:04;;;;;;;;;;;;;;;;;;2209475;59;16853;-72
2022/01/29 06:14:40;;;;;;;;;;;;;;;;;;2209436;59;15145;-72
2022/01/29 06:17:13;;;;;;;;;;;;;;;;;;2209225;59;17341;-72
2022/01/29 06:19:48;;;;;;;;;;;;;;;;;;2209077;59;21197;-72
2022/01/29 06:22:22;;;;;;;;;;;;;;;;;;2209964;59;20169;-72
2022/01/29 06:24:55;;;;;;;;;;;;;;;;;;2208921;59;15435;-72
2022/01/29 06:27:28;;;;;;;;;;;;;;;;;;2207902;59;91170;-72
2022/01/29 06:30:04;;;;;;;;;;;;;;;;;;2209815;63;16838;-72
2022/01/29 06:32:37;;;;;;;;;;;;;;;;;;2209966;67;16902;-72
2022/01/29 06:35:10;;;;;;;;;;;;;;;;;;2210149;59;18547;-71
2022/01/29 06:37:43;;;;;;;;;;;;;;;;;;2208774;59;32635;-72
2022/01/29 06:40:17;;;;;;;;;;;;;;;;;;2209550;67;16489;-72
2022/01/29 06:42:50;;;;;;;;;;;;;;;;;;2209357;59;15259;-72
2022/01/29 06:45:26;;;;;;;;;;;;;;;;;;2209064;64;14462;-72
2022/01/29 06:47:59;;;;;;;;;;;;;;;;;;2208806;59;15015;-72
2022/01/29 06:50:32;;;;;;;;;;;;;;;;;;2210426;59;19221;-72
2022/01/29 06:53:06;;;;;;;;;;;;;;;;;;2209102;67;18493;-72
2022/01/29 06:55:39;;;;;;;;;;;;;;;;;;2207750;59;19365;-72
2022/01/29 06:58:12;;;;;;;;;;;;;;;;;;2210001;67;20664;-72
2022/01/29 07:00:48;;;;;;;;;;;;;;;;;;2208550;67;23103;-72
2022/01/29 07:03:21;;;;;;;;;;;;;;;;;;2208976;59;15089;-72
2022/01/29 07:05:54;;;;;;;;;;;;;;;;;;2208404;59;14563;-72
2022/01/29 07:08:28;;;;;;;;;;;;;;;;;;2209690;59;18642;-72
2022/01/29 07:11:01;;;;;;;;;;;;;;;;;;2209484;59;20485;-72
2022/01/29 07:13:35;;;;;;;;;;;;;;;;;;2208070;63;18341;-72
2022/01/29 07:16:11;;;;;;;;;;;;;;;;;;2210062;59;15892;-72
2022/01/29 07:18:44;;;;;;;;;;;;;;;;;;2209685;67;15611;-72
2022/01/29 07:21:17;;;;;;;;;;;;;;;;;;2208533;67;105233;-72
2022/01/29 07:23:50;;;;;;;;;;;;;;;;;;2208536;59;18838;-72
2022/01/29 07:26:23;;;;;;;;;;;;;;;;;;2209783;59;19933;-72
2022/01/29 07:28:56;;;;;;;;;;;;;;;;;;2209671;59;13872;-72
2022/01/29 07:31:32;;;;;;;;;;;;;;;;;;2208279;59;15452;-72
2022/01/29 07:34:05;;;;;;;;;;;;;;;;;;2209268;67;14029;-72
2022/01/29 07:36:38;;;;;;;;;;;;;;;;;;2209579;53;18827;-69
2022/01/29 07:39:12;;;;;;;;;;;;;;;;;;2207885;59;13823;-69
2022/01/29 07:41:45;;;;;;;;;;;;;;;;;;2208787;59;19358;-69
2022/01/29 07:44:18;;;;;;;;;;;;;;;;;;2207553;59;16086;-69
2022/01/29 07:46:54;;;;;;;;;;;;;;;;;;2203664;59;18126;-69
2022/01/29 07:49:27;;;;;;;;;;;;;;;;;;2204627;59;22060;-69
2022/01/29 07:52:00;;;;;;;;;;;;;;;;;;2206541;67;16341;-69
2022/01/29 07:54:34;;;;;;;;;;;;;;;;;;2205166;59;19082;-69
2022/01/29 07:57:07;;;;;;;;;;;;;;;;;;2205706;59;20988;-70
2022/01/29 07:59:40;;;;;;;;;;;;;;;;;;2204413;59;22867;-69
2022/01/29 08:02:16;;;;;;;;;;;;;;;;;;2206069;59;14493;-70
2022/01/29 08:04:49;;;;;;;;;;;;;;;;;;2205918;59;14930;-69
2022/01/29 08:07:22;;;;;;;;;;;;;;;;;;2205572;64;18459;-69
2022/01/29 08:09:55;;;;;;;;;;;;;;;;;;2205226;59;18429;-70
2022/01/29 08:12:28;;;;;;;;;;;;;;;;;;2206169;59;18655;-69
2022/01/29 08:15:01;;;;;;;;;;;;;;;;;;2205153;59;17361;-69
2022/01/29 08:17:37;;;;;;;;;;;;;;;;;;2204799;59;26013;-69
2022/01/29 08:20:12;;;;;;;;;;;;;;;;;;2206396;67;18036;-69
2022/01/29 08:22:45;;;;;;;;;;;;;;;;;;2206489;67;17688;-69
2022/01/29 08:25:18;;;;;;;;;;;;;;;;;;2205478;59;20959;-70
2022/01/29 08:27:52;;;;;;;;;;;;;;;;;;2204795;59;20042;-69
2022/01/29 08:30:25;;;;;;;;;;;;;;;;;;2207421;59;16601;-70
2022/01/29 08:33:01;;;;;;;;;;;;;;;;;;2206120;59;26360;-70
2022/01/29 08:35:34;;;;;;;;;;;;;;;;;;2205038;59;18548;-69
2022/01/29 08:38:07;;;;;;;;;;;;;;;;;;2206376;59;13448;-70
2022/01/29 08:40:41;;;;;;;;;;;;;;;;;;2205909;63;15324;-70
2022/01/29 08:43:14;;;;;;;;;;;;;;;;;;2205733;67;16537;-69
2022/01/29 08:45:47;;;;;;;;;;;;;;;;;;2204924;59;17728;-70
2022/01/29 08:48:23;;;;;;;;;;;;;;;;;;2205088;59;27718;-69
2022/01/29 08:50:57;;;;;;;;;;;;;;;;;;2205300;59;14700;-69
2022/01/29 08:53:30;;;;;;;;;;;;;;;;;;2205521;63;36021;-70
2022/01/29 08:56:03;;;;;;;;;;;;;;;;;;2206454;59;17586;-69
2022/01/29 08:58:36;;;;;;;;;;;;;;;;;;2206725;59;22790;-69
2022/01/29 09:01:09;;;;;;;;;;;;;;;;;;2206878;59;15399;-69
2022/01/29 09:03:45;;;;;;;;;;;;;;;;;;2205513;67;22006;-69
2022/01/29 09:06:19;;;;;;;;;;;;;;;;;;2206783;59;26457;-69
2022/01/29 09:08:52;;;;;;;;;;;;;;;;;;2206610;59;16801;-69
2022/01/29 09:11:25;;;;;;;;;;;;;;;;;;2206425;63;15491;-69
2022/01/29 09:13:58;;;;;;;;;;;;;;;;;;2205780;64;15145;-69
2022/01/29 09:16:31;;;;;;;;;;;;;;;;;;2206298;59;17903;-69
2022/01/29 09:19:07;;;;;;;;;;;;;;;;;;2206462;63;15349;-70
2022/01/29 09:21:40;;;;;;;;;;;;;;;;;;2205980;59;22092;-69
2022/01/29 09:24:13;;;;;;;;;;;;;;;;;;2205602;59;17784;-69
2022/01/29 09:26:47;;;;;;;;;;;;;;;;;;2205709;59;16621;-69
2022/01/29 09:29:20;;;;;;;;;;;;;;;;;;2205959;59;19695;-69
2022/01/29 09:31:53;;;;;;;;;;;;;;;;;;2205459;67;18956;-69
2022/01/29 09:34:29;;;;;;;;;;;;;;;;;;2206598;59;15252;-69
2022/01/29 09:37:02;;;;;;;;;;;;;;;;;;2205819;59;19371;-70
2022/01/29 09:39:35;;;;;;;;;;;;;;;;;;2205660;59;13828;-69
2022/01/29 09:42:09;;;;;;;;;;;;;;;;;;2206815;59;20456;-69
2022/01/29 09:44:45;;;;;;;;;;;;;;;;;;2206333;67;14541;-69
2022/01/29 09:47:18;;;;;;;;;;;;;;;;;;2205884;59;16996;-69
2022/01/29 09:49:55;;;;;;;;;;;;;;;;;;2205531;59;15354;-70
2022/01/29 09:52:28;;;;;;;;;;;;;;;;;;2206051;59;24256;-69
2022/01/29 09:55:01;;;;;;;;;;;;;;;;;;2205124;59;34957;-69
2022/01/29 09:57:34;;;;;;;;;;;;;;;;;;2204997;59;15467;-70
2022/01/29 10:00:10;;;;;;;;;;;;;;;;;;2205328;59;14797;-70
2022/01/29 10:02:43;;;;;;;;;;;;;;;;;;2206524;59;12998;-70
2022/01/29 10:05:19;;;;;;;;;;;;;;;;;;2206252;59;19327;-70
2022/01/29 10:08:02;;;;;;;;;;;;;;;;;;2203384;59;25802;-70
2022/01/29 10:10:39;;;;;;;;;;;;;;;;;;2204052;59;17892;-70
2022/01/29 10:13:26;;;;;;;;;;;;;;;;;;2205279;59;13817;-70
2022/01/29 10:16:06;;;;;;;;;;;;;;;;;;2202945;59;16398;-70
2022/01/29 10:18:40;;;;;;;;;;;;;;;;;;2205892;63;15083;-70
2022/01/29 10:21:20;;;;;;;;;;;;;;;;;;2205333;63;43268;-70
2022/01/29 10:24:02;;;;;;;;;;;;;;;;;;2204055;59;21500;-69
2022/01/29 10:26:36;;;;;;;;;;;;;;;;;;2205892;59;15299;-70
2022/01/29 10:29:10;;;;;;;;;;;;;;;;;;2206407;59;14770;-70
2022/01/29 10:31:44;;;;;;;;;;;;;;;;;;2204965;59;34103;-71
2022/01/29 10:34:22;;;;;;;;;;;;;;;;;;2204147;59;61775;-73
2022/01/29 10:37:13;;;;;;;;;;;;;;;;;;2205818;59;21082;-70
2022/01/29 10:39:52;;;;;;;;;;;;;;;;;;2204550;59;22626;-70
2022/01/29 10:42:27;;;;;;;;;;;;;;;;;;2205513;59;26388;-69
2022/01/29 10:45:02;;;;;;;;;;;;;;;;;;2205967;63;18697;-69
2022/01/29 10:47:53;;;;;;;;;;;;;;;;;;2205056;59;16057;-69
2022/01/29 10:50:27;;;;;;;;;;;;;;;;;;2204764;59;17586;-70
2022/01/29 10:53:01;;;;;;;;;;;;;;;;;;2205993;59;15819;-69
2022/01/29 10:55:37;;;;;;;;;;;;;;;;;;2204678;59;19430;-70
2022/01/29 10:58:22;;;;;;;;;;;;;;;;;;2205679;63;16432;-70
2022/01/29 11:01:10;;;;;;;;;;;;;;;;;;2205671;67;15030;-70
2022/01/29 11:03:43;;;;;;;;;;;;;;;;;;2205054;67;15499;-70
2022/01/29 11:06:19;;;;;;;;;;;;;;;;;;2205016;59;15825;-69
2022/01/29 11:08:52;;;;;;;;;;;;;;;;;;2205849;59;14631;-69
2022/01/29 11:11:28;;;;;;;;;;;;;;;;;;2204763;59;20928;-70
2022/01/29 11:14:01;;;;;;;;;;;;;;;;;;2204361;59;28096;-69
2022/01/29 11:16:35;;;;;;;;;;;;;;;;;;2205347;59;17161;-69
2022/01/29 11:19:09;;;;;;;;;;;;;;;;;;2204856;59;24363;-69
2022/01/29 11:21:43;;;;;;;;;;;;;;;;;;2202745;59;25239;-69
2022/01/29 11:24:19;;;;;;;;;;;;;;;;;;2199640;59;14179;-70
2022/01/29 11:26:55;;;;;;;;;;;;;;;;;;2201763;59;15296;-69
2022/01/29 11:29:30;;;;;;;;;;;;;;;;;;2205309;59;27154;-69
2022/01/29 11:32:22;;;;;;;;;;;;;;;;;;2206150;59;15014;-69
2022/01/29 11:35:16;;;;;;;;;;;;;;;;;;2202366;59;249966;-69
2022/01/29 11:37:51;;;;;;;;;;;;;;;;;;2202973;59;38503;-69
2022/01/29 11:40:26;;;;;;;;;;;;;;;;;;2205922;67;14767;-69
2022/01/29 11:43:10;;;;;;;;;;;;;;;;;;2204901;59;23063;-69
2022/01/29 11:45:50;;;;;;;;;;;;;;;;;;2204484;59;29419;-69
2022/01/29 11:48:50;;;;;;;;;;;;;;;;;;2205431;59;44475;-69
2022/01/29 11:51:44;;;;;;;;;;;;;;;;;;2204835;59;23581;-69
2022/01/29 11:54:21;;;;;;;;;;;;;;;;;;2203626;59;18269;-69
2022/01/29 11:57:14;;;;;;;;;;;;;;;;;;2205875;59;18252;-70
2022/01/29 11:59:50;;;;;;;;;;;;;;;;;;2204901;59;21581;-69
2022/01/29 12:02:45;;;;;;;;;;;;;;;;;;2206066;64;25690;-69
2022/01/29 12:05:18;;;;;;;;;;;;;;;;;;2206305;67;15584;-70
2022/01/29 12:08:11;;;;;;;;;;;;;;;;;;2205031;59;23396;-70
2022/01/29 12:10:53;;;;;;;;;;;;;;;;;;2205682;59;27634;-70
2022/01/29 12:13:26;;;;;;;;;;;;;;;;;;2204804;59;15266;-71
2022/01/29 12:16:02;;;;;;;;;;;;;;;;;;2204976;59;21171;-70
2022/01/29 12:18:36;;;;;;;;;;;;;;;;;;2205878;63;16152;-69
2022/01/29 12:21:09;;;;;;;;;;;;;;;;;;2205617;63;14868;-69
2022/01/29 12:23:50;;;;;;;;;;;;;;;;;;2205081;59;21817;-69
2022/01/29 12:26:24;;;;;;;;;;;;;;;;;;2206611;59;28328;-70
2022/01/29 12:28:57;;;;;;;;;;;;;;;;;;2204346;59;19009;-70
2022/01/29 12:31:33;;;;;;;;;;;;;;;;;;2205551;64;22223;-69
2022/01/29 12:34:13;;;;;;;;;;;;;;;;;;2206471;59;15392;-70
2022/01/29 12:36:46;;;;;;;;;;;;;;;;;;2204194;59;19372;-69
2022/01/29 12:39:24;;;;;;;;;;;;;;;;;;2205698;67;23997;-69
2022/01/29 12:42:03;;;;;;;;;;;;;;;;;;2205069;63;14429;-69
2022/01/29 12:44:36;;;;;;;;;;;;;;;;;;2200837;59;15773;-69
2022/01/29 12:47:25;;;;;;;;;;;;;;;;;;2206750;59;18901;-69
2022/01/29 12:49:59;;;;;;;;;;;;;;;;;;2205171;59;14340;-70
2022/01/29 12:52:33;;;;;;;;;;;;;;;;;;2206525;59;18630;-70
2022/01/29 12:55:06;;;;;;;;;;;;;;;;;;2197654;59;23535;-70
2022/01/29 12:57:44;;;;;;;;;;;;;;;;;;2183679;59;17676;-70
2022/01/29 13:00:18;;;;;;;;;;;;;;;;;;2199382;59;28720;-70
2022/01/29 13:02:54;;;;;;;;;;;;;;;;;;2204615;59;15750;-69
2022/01/29 13:05:27;;;;;;;;;;;;;;;;;;2202775;63;28344;-70
2022/01/29 13:08:00;;;;;;;;;;;;;;;;;;2206005;59;15999;-69
2022/01/29 13:10:35;;;;;;;;;;;;;;;;;;2205211;63;16254;-70
2022/01/29 13:13:08;;;;;;;;;;;;;;;;;;2205192;59;18775;-70
2022/01/29 13:15:42;;;;;;;;;;;;;;;;;;2204676;59;23999;-69
2022/01/29 13:18:18;;;;;;;;;;;;;;;;;;2206291;59;15211;-70
2022/01/29 13:20:51;;;;;;;;;;;;;;;;;;2204860;63;18689;-69
2022/01/29 13:23:24;;;;;;;;;;;;;;;;;;2205267;59;14405;-70
2022/01/29 13:25:58;;;;;;;;;;;;;;;;;;2204716;63;20002;-69
2022/01/29 13:28:38;;;;;;;;;;;;;;;;;;2204309;59;23158;-69
2022/01/29 13:31:11;;;;;;;;;;;;;;;;;;2204174;59;20749;-70
2022/01/29 13:33:48;;;;;;;;;;;;;;;;;;2204080;59;21192;-70
2022/01/29 13:36:32;;;;;;;;;;;;;;;;;;2206563;53;13764;-70
2022/01/29 13:39:10;;;;;;;;;;;;;;;;;;2202029;59;76362;-70
2022/01/29 13:41:43;;;;;;;;;;;;;;;;;;2203432;59;57561;-70
2022/01/29 13:44:16;;;;;;;;;;;;;;;;;;2208999;59;23305;-69
2022/01/29 13:47:06;;;;;;;;;;;;;;;;;;2207631;59;29231;-69
2022/01/29 13:49:44;;;;;;;;;;;;;;;;;;2208007;59;46226;-69
2022/01/29 13:52:19;;;;;;;;;;;;;;;;;;2208838;59;24950;-69
2022/01/29 13:54:52;;;;;;;;;;;;;;;;;;2208090;59;44625;-69
2022/01/29 13:57:25;;;;;;;;;;;;;;;;;;2207378;59;38284;-69
2022/01/29 14:00:03;;;;;;;;;;;;;;;;;;2207706;63;19393;-70
2022/01/29 14:02:49;;;;;;;;;;;;;;;;;;2208354;67;69572;-69
2022/01/29 14:05:28;;;;;;;;;;;;;;;;;;2207950;67;51998;-69
2022/01/29 14:08:18;;;;;;;;;;;;;;;;;;2206238;59;79624;-69
2022/01/29 14:10:58;;;;;;;;;;;;;;;;;;2207991;59;44395;-70
2022/01/29 14:13:31;;;;;;;;;;;;;;;;;;2207667;59;33097;-69
2022/01/29 14:16:05;;;;;;;;;;;;;;;;;;2208693;59;26769;-69
2022/01/29 14:18:38;;;;;;;;;;;;;;;;;;2208355;59;36591;-69
2022/01/29 14:21:14;;;;;;;;;;;;;;;;;;2208277;59;23287;-69
2022/01/29 14:23:47;;;;;;;;;;;;;;;;;;2207760;67;20764;-69
2022/01/29 14:26:21;;;;;;;;;;;;;;;;;;2208324;59;19313;-69
2022/01/29 14:28:56;;;;;;;;;;;;;;;;;;2208550;59;17094;-69
2022/01/29 14:31:30;;;;;;;;;;;;;;;;;;2207964;64;20180;-69
2022/01/29 14:34:05;;;;;;;;;;;;;;;;;;2208626;59;15193;-69
2022/01/29 14:36:41;;;;;;;;;;;;;;;;;;2208252;59;17781;-69
2022/01/29 14:39:15;;;;;;;;;;;;;;;;;;2207209;59;50164;-69
2022/01/29 14:41:48;;;;;;;;;;;;;;;;;;2206065;59;37578;-69
2022/01/29 14:44:22;;;;;;;;;;;;;;;;;;2209226;59;28480;-69
2022/01/29 14:46:55;;;;;;;;;;;;;;;;;;2208466;59;21846;-69
2022/01/29 14:49:28;;;;;;;;;;;;;;;;;;2207612;59;22928;-69
2022/01/29 14:52:06;;;;;;;;;;;;;;;;;;2208420;59;27219;-69
2022/01/29 14:54:40;;;;;;;;;;;;;;;;;;2207271;59;136111;-70
2022/01/29 14:57:13;;;;;;;;;;;;;;;;;;2207923;59;26513;-70
2022/01/29 14:59:47;;;;;;;;;;;;;;;;;;2207684;63;41517;-69
2022/01/29 15:02:20;;;;;;;;;;;;;;;;;;2208088;59;14174;-69
2022/01/29 15:04:54;;;;;;;;;;;;;;;;;;2209522;63;14691;-70
2022/01/29 15:07:30;;;;;;;;;;;;;;;;;;2206665;59;125688;-70
2022/01/29 15:10:05;;;;;;;;;;;;;;;;;;2207594;67;83152;-69
2022/01/29 15:12:38;;;;;;;;;;;;;;;;;;2208021;59;15502;-70
2022/01/29 15:15:12;;;;;;;;;;;;;;;;;;2207993;67;59259;-69
2022/01/29 15:17:45;;;;;;;;;;;;;;;;;;2207228;59;38283;-69
2022/01/29 15:20:18;;;;;;;;;;;;;;;;;;2208740;59;40777;-70
2022/01/29 15:22:55;;;;;;;;;;;;;;;;;;2208319;59;21090;-69
2022/01/29 15:25:30;;;;;;;;;;;;;;;;;;2206685;59;27338;-69
2022/01/29 15:28:04;;;;;;;;;;;;;;;;;;2208136;67;51861;-69
2022/01/29 15:30:39;;;;;;;;;;;;;;;;;;2208647;67;15900;-69
2022/01/29 15:33:13;;;;;;;;;;;;;;;;;;2208584;59;20934;-69
2022/01/29 15:35:47;;;;;;;;;;;;;;;;;;2207191;59;46691;-70
2022/01/29 15:38:23;;;;;;;;;;;;;;;;;;2208820;67;22068;-70
2022/01/29 15:40:58;;;;;;;;;;;;;;;;;;2209609;59;16370;-70
2022/01/29 15:43:33;;;;;;;;;;;;;;;;;;2207697;59;27779;-70
2022/01/29 15:46:06;;;;;;;;;;;;;;;;;;2209215;63;51029;-70
2022/01/29 15:48:41;;;;;;;;;;;;;;;;;;2207699;59;21303;-69
2022/01/29 15:51:15;;;;;;;;;;;;;;;;;;2208486;59;34819;-69
2022/01/29 15:53:51;;;;;;;;;;;;;;;;;;2206481;59;58234;-70
2022/01/29 15:56:24;;;;;;;;;;;;;;;;;;2207110;59;107716;-69
2022/01/29 15:58:57;;;;;;;;;;;;;;;;;;2208343;59;38990;-70
2022/01/29 16:01:31;;;;;;;;;;;;;;;;;;2208432;59;56232;-69
2022/01/29 16:04:04;;;;;;;;;;;;;;;;;;2210355;63;29334;-69
2022/01/29 16:06:38;;;;;;;;;;;;;;;;;;2209224;59;27303;-69
2022/01/29 16:09:13;;;;;;;;;;;;;;;;;;2208172;59;45073;-70
2022/01/29 16:11:47;;;;;;;;;;;;;;;;;;2208151;59;58371;-70
2022/01/29 16:14:25;;;;;;;;;;;;;;;;;;2209242;59;38592;-69
2022/01/29 16:17:01;;;;;;;;;;;;;;;;;;2209370;59;26038;-70
2022/01/29 16:19:34;;;;;;;;;;;;;;;;;;2208510;67;26124;-70
2022/01/29 16:22:07;;;;;;;;;;;;;;;;;;2210131;63;36364;-69
2022/01/29 16:24:44;;;;;;;;;;;;;;;;;;2208744;59;19947;-70
2022/01/29 16:27:20;;;;;;;;;;;;;;;;;;2208644;59;36170;-70
2022/01/29 16:29:53;;;;;;;;;;;;;;;;;;2207850;59;13916;-69
2022/01/29 16:32:26;;;;;;;;;;;;;;;;;;2209355;59;23965;-70
2022/01/29 16:35:00;;;;;;;;;;;;;;;;;;2208687;59;18856;-70
2022/01/29 16:37:33;;;;;;;;;;;;;;;;;;2207885;59;33946;-69
2022/01/29 16:40:10;;;;;;;;;;;;;;;;;;2209217;59;46070;-70
2022/01/29 16:42:44;;;;;;;;;;;;;;;;;;2207919;59;50595;-70
2022/01/29 16:45:17;;;;;;;;;;;;;;;;;;2208452;63;24565;-70
2022/01/29 16:47:50;;;;;;;;;;;;;;;;;;2207894;59;30111;-70
2022/01/29 16:50:24;;;;;;;;;;;;;;;;;;2209226;59;22096;-70
2022/01/29 16:52:57;;;;;;;;;;;;;;;;;;2207941;67;41432;-69
2022/01/29 16:55:34;;;;;;;;;;;;;;;;;;2207653;59;37073;-69
2022/01/29 16:58:07;;;;;;;;;;;;;;;;;;2208615;59;54832;-70
2022/01/29 17:00:40;;;;;;;;;;;;;;;;;;2208783;67;19747;-70
2022/01/29 17:03:13;;;;;;;;;;;;;;;;;;2209454;67;13717;-69
2022/01/29 17:05:47;;;;;;;;;;;;;;;;;;2208421;59;24200;-70
2022/01/29 17:08:20;;;;;;;;;;;;;;;;;;2208986;59;17918;-70
2022/01/29 17:10:56;;;;;;;;;;;;;;;;;;2208638;67;29593;-69
2022/01/29 17:13:29;;;;;;;;;;;;;;;;;;2208959;59;18686;-70
2022/01/29 17:16:02;;;;;;;;;;;;;;;;;;2207926;59;84479;-69
2022/01/29 17:18:35;;;;;;;;;;;;;;;;;;2209237;59;13595;-70
2022/01/29 17:21:08;;;;;;;;;;;;;;;;;;2208698;59;24472;-69
2022/01/29 17:23:42;;;;;;;;;;;;;;;;;;2207816;67;52352;-70
2022/01/29 17:26:18;;;;;;;;;;;;;;;;;;2207418;59;53630;-69
2022/01/29 17:28:51;;;;;;;;;;;;;;;;;;2208359;59;69954;-69
2022/01/29 17:31:24;;;;;;;;;;;;;;;;;;2208271;59;24481;-70
2022/01/29 17:33:57;;;;;;;;;;;;;;;;;;2206724;59;36961;-70
2022/01/29 17:36:30;;;;;;;;;;;;;;;;;;2208149;59;15200;-69
2022/01/29 17:39:05;;;;;;;;;;;;;;;;;;2207263;67;37271;-69
2022/01/29 17:41:41;;;;;;;;;;;;;;;;;;2206363;63;52324;-69
2022/01/29 17:44:14;;;;;;;;;;;;;;;;;;2208375;59;19914;-69
2022/01/29 17:46:49;;;;;;;;;;;;;;;;;;2207757;59;95889;-70
2022/01/29 17:49:22;;;;;;;;;;;;;;;;;;2208662;59;21154;-69